sensor_id;sensor_type;location;lat;lon;timestamp;temperature;humidity
15888;DHT22;56032;51.324;12.376;2022-11-03T00:01:46;8.00;99.90
15888;DHT22;56032;51.324;12.376;2022-11-03T00:04:27;8.10;99.90
15888;DHT22;56032;51.324;12.376;2022-11-03T00:06:58;8.10;99.90
15888;DHT22;56032;51.324;12.376;2022-11-03T00:09:29;8.10;99.90
15888;DHT22;56032;51.324;12.376;2022-11-03T00:12:01;8.00;99.90
15888;DHT22;56032;51.324;12.376;2022-11-03T00:14:35;8.00;99.90
15888;DHT22;56032;51.324;12.376;2022-11-03T00:17:04;8.00;99.90
15888;DHT22;56032;51.324;12.376;2022-11-03T00:19:41;8.00;99.90
15888;DHT22;56032;51.324;12.376;2022-11-03T00:22:10;7.70;99.90
15888;DHT22;56032;51.324;12.376;2022-11-03T00:24:40;8.00;99.90
15888;DHT22;56032;51.324;12.376;2022-11-03T00:27:08;7.90;99.90
15888;DHT22;56032;51.324;12.376;2022-11-03T00:29:37;7.90;99.90
15888;DHT22;56032;51.324;12.376;2022-11-03T00:32:05;7.90;99.90
15888;DHT22;56032;51.324;12.376;2022-11-03T00:34:34;7.90;99.90
15888;DHT22;56032;51.324;12.376;2022-11-03T00:37:02;7.80;99.90
15888;DHT22;56032;51.324;12.376;2022-11-03T00:39:31;7.80;99.90
15888;DHT22;56032;51.324;12.376;2022-11-03T00:42:03;7.80;99.90
15888;DHT22;56032;51.324;12.376;2022-11-03T00:44:33;7.80;99.90
15888;DHT22;56032;51.324;12.376;2022-11-03T00:47:01;7.80;99.90
15888;DHT22;56032;51.324;12.376;2022-11-03T00:49:31;7.80;99.90
15888;DHT22;56032;51.324;12.376;2022-11-03T00:51:59;7.80;99.90
15888;DHT22;56032;51.324;12.376;2022-11-03T00:54:28;7.70;99.90
15888;DHT22;56032;51.324;12.376;2022-11-03T00:56:57;7.80;99.90
15888;DHT22;56032;51.324;12.376;2022-11-03T00:59:27;7.80;99.90
15888;DHT22;56032;51.324;12.376;2022-11-03T01:01:56;7.80;99.90
15888;DHT22;56032;51.324;12.376;2022-11-03T01:04:25;7.80;99.90
15888;DHT22;56032;51.324;12.376;2022-11-03T01:07:12;7.80;99.90
15888;DHT22;56032;51.324;12.376;2022-11-03T01:09:41;8.30;99.90
15888;DHT22;56032;51.324;12.376;2022-11-03T01:12:11;7.80;99.90
15888;DHT22;56032;51.324;12.376;2022-11-03T01:14:42;7.80;99.90
15888;DHT22;56032;51.324;12.376;2022-11-03T01:17:12;7.80;99.90
15888;DHT22;56032;51.324;12.376;2022-11-03T01:19:44;7.80;99.90
15888;DHT22;56032;51.324;12.376;2022-11-03T01:22:12;7.80;99.90
15888;DHT22;56032;51.324;12.376;2022-11-03T01:24:41;7.80;99.90
15888;DHT22;56032;51.324;12.376;2022-11-03T01:27:12;7.80;99.90
15888;DHT22;56032;51.324;12.376;2022-11-03T01:29:42;7.80;99.90
15888;DHT22;56032;51.324;12.376;2022-11-03T01:32:10;7.80;99.90
15888;DHT22;56032;51.324;12.376;2022-11-03T01:34:39;7.70;99.90
15888;DHT22;56032;51.324;12.376;2022-11-03T01:37:07;7.70;99.90
15888;DHT22;56032;51.324;12.376;2022-11-03T01:39:36;7.70;99.90
15888;DHT22;56032;51.324;12.376;2022-11-03T01:42:04;7.70;99.90
15888;DHT22;56032;51.324;12.376;2022-11-03T01:44:33;7.60;99.90
15888;DHT22;56032;51.324;12.376;2022-11-03T01:47:10;7.60;99.90
15888;DHT22;56032;51.324;12.376;2022-11-03T01:49:40;7.60;99.90
15888;DHT22;56032;51.324;12.376;2022-11-03T01:52:12;7.50;99.90
15888;DHT22;56032;51.324;12.376;2022-11-03T01:54:42;7.30;99.90
15888;DHT22;56032;51.324;12.376;2022-11-03T01:57:12;7.60;99.90
15888;DHT22;56032;51.324;12.376;2022-11-03T01:59:45;7.60;99.90
15888;DHT22;56032;51.324;12.376;2022-11-03T02:02:15;7.60;99.90
15888;DHT22;56032;51.324;12.376;2022-11-03T02:04:44;7.60;99.90
15888;DHT22;56032;51.324;12.376;2022-11-03T02:07:13;7.60;99.90
15888;DHT22;56032;51.324;12.376;2022-11-03T02:09:43;7.60;99.90
15888;DHT22;56032;51.324;12.376;2022-11-03T02:12:12;7.60;99.90
15888;DHT22;56032;51.324;12.376;2022-11-03T02:14:41;7.60;99.90
15888;DHT22;56032;51.324;12.376;2022-11-03T02:17:11;7.60;99.90
15888;DHT22;56032;51.324;12.376;2022-11-03T02:19:43;7.60;99.90
15888;DHT22;56032;51.324;12.376;2022-11-03T02:22:24;7.60;99.90
15888;DHT22;56032;51.324;12.376;2022-11-03T02:24:57;7.60;99.90
15888;DHT22;56032;51.324;12.376;2022-11-03T02:27:30;7.60;99.90
15888;DHT22;56032;51.324;12.376;2022-11-03T02:29:59;7.70;99.90
15888;DHT22;56032;51.324;12.376;2022-11-03T02:32:28;7.60;99.90
15888;DHT22;56032;51.324;12.376;2022-11-03T02:34:59;7.70;99.90
15888;DHT22;56032;51.324;12.376;2022-11-03T02:37:30;7.70;99.90
15888;DHT22;56032;51.324;12.376;2022-11-03T02:40:03;7.70;99.90
15888;DHT22;56032;51.324;12.376;2022-11-03T02:42:35;7.70;99.90
15888;DHT22;56032;51.324;12.376;2022-11-03T02:45:06;7.70;99.90
15888;DHT22;56032;51.324;12.376;2022-11-03T02:50:32;7.60;99.90
15888;DHT22;56032;51.324;12.376;2022-11-03T02:53:01;7.60;99.90
15888;DHT22;56032;51.324;12.376;2022-11-03T02:55:32;7.60;99.90
15888;DHT22;56032;51.324;12.376;2022-11-03T02:58:05;7.60;99.90
15888;DHT22;56032;51.324;12.376;2022-11-03T03:00:37;7.60;99.90
15888;DHT22;56032;51.324;12.376;2022-11-03T03:03:09;7.50;99.90
15888;DHT22;56032;51.324;12.376;2022-11-03T03:05:39;7.50;99.90
15888;DHT22;56032;51.324;12.376;2022-11-03T03:08:08;7.50;99.90
15888;DHT22;56032;51.324;12.376;2022-11-03T03:10:39;7.40;99.90
15888;DHT22;56032;51.324;12.376;2022-11-03T03:13:10;7.50;99.90
15888;DHT22;56032;51.324;12.376;2022-11-03T03:15:44;7.50;99.90
15888;DHT22;56032;51.324;12.376;2022-11-03T03:18:19;7.50;99.90
15888;DHT22;56032;51.324;12.376;2022-11-03T03:20:50;7.50;99.90
15888;DHT22;56032;51.324;12.376;2022-11-03T03:23:19;7.50;99.90
15888;DHT22;56032;51.324;12.376;2022-11-03T03:25:50;7.50;99.90
15888;DHT22;56032;51.324;12.376;2022-11-03T03:28:21;7.50;99.90
15888;DHT22;56032;51.324;12.376;2022-11-03T03:30:51;7.50;99.90
15888;DHT22;56032;51.324;12.376;2022-11-03T03:33:20;7.50;99.90
15888;DHT22;56032;51.324;12.376;2022-11-03T03:35:49;7.50;99.90
15888;DHT22;56032;51.324;12.376;2022-11-03T03:38:20;7.50;99.90
15888;DHT22;56032;51.324;12.376;2022-11-03T03:40:51;7.60;99.90
15888;DHT22;56032;51.324;12.376;2022-11-03T03:43:22;7.50;99.90
15888;DHT22;56032;51.324;12.376;2022-11-03T03:45:52;7.50;99.90
15888;DHT22;56032;51.324;12.376;2022-11-03T03:48:21;7.50;99.90
15888;DHT22;56032;51.324;12.376;2022-11-03T03:50:50;7.50;99.90
15888;DHT22;56032;51.324;12.376;2022-11-03T03:53:18;7.50;99.90
15888;DHT22;56032;51.324;12.376;2022-11-03T03:55:48;7.50;99.90
15888;DHT22;56032;51.324;12.376;2022-11-03T03:58:17;7.50;99.90
15888;DHT22;56032;51.324;12.376;2022-11-03T04:00:47;7.60;99.90
15888;DHT22;56032;51.324;12.376;2022-11-03T04:03:16;7.60;99.90
15888;DHT22;56032;51.324;12.376;2022-11-03T04:05:45;7.60;99.90
15888;DHT22;56032;51.324;12.376;2022-11-03T04:08:14;7.60;99.90
15888;DHT22;56032;51.324;12.376;2022-11-03T04:10:43;7.60;99.90
15888;DHT22;56032;51.324;12.376;2022-11-03T04:13:32;7.70;99.90
15888;DHT22;56032;51.324;12.376;2022-11-03T04:16:19;7.60;99.90
15888;DHT22;56032;51.324;12.376;2022-11-03T04:19:07;7.70;99.90
15888;DHT22;56032;51.324;12.376;2022-11-03T04:21:53;7.70;99.90
15888;DHT22;56032;51.324;12.376;2022-11-03T04:24:38;7.70;99.90
15888;DHT22;56032;51.324;12.376;2022-11-03T04:27:17;7.70;99.90
15888;DHT22;56032;51.324;12.376;2022-11-03T04:29:48;7.70;99.90
15888;DHT22;56032;51.324;12.376;2022-11-03T04:32:20;7.60;99.90
15888;DHT22;56032;51.324;12.376;2022-11-03T04:34:53;7.60;99.90
15888;DHT22;56032;51.324;12.376;2022-11-03T04:37:21;7.60;99.90
15888;DHT22;56032;51.324;12.376;2022-11-03T04:39:52;7.60;99.90
15888;DHT22;56032;51.324;12.376;2022-11-03T04:42:22;7.70;99.90
15888;DHT22;56032;51.324;12.376;2022-11-03T04:44:56;7.60;99.90
15888;DHT22;56032;51.324;12.376;2022-11-03T04:47:27;7.50;99.90
15888;DHT22;56032;51.324;12.376;2022-11-03T04:49:57;7.60;99.90
15888;DHT22;56032;51.324;12.376;2022-11-03T04:52:27;7.60;99.90
15888;DHT22;56032;51.324;12.376;2022-11-03T04:54:57;7.50;99.90
15888;DHT22;56032;51.324;12.376;2022-11-03T04:57:26;7.20;99.90
15888;DHT22;56032;51.324;12.376;2022-11-03T05:00:17;7.40;99.90
15888;DHT22;56032;51.324;12.376;2022-11-03T05:02:55;7.50;99.90
15888;DHT22;56032;51.324;12.376;2022-11-03T05:05:24;7.50;99.90
15888;DHT22;56032;51.324;12.376;2022-11-03T05:08:02;7.50;99.90
15888;DHT22;56032;51.324;12.376;2022-11-03T05:10:31;7.40;99.90
15888;DHT22;56032;51.324;12.376;2022-11-03T05:12:59;7.40;99.90
15888;DHT22;56032;51.324;12.376;2022-11-03T05:15:30;7.40;99.90
15888;DHT22;56032;51.324;12.376;2022-11-03T05:18:10;7.30;99.90
15888;DHT22;56032;51.324;12.376;2022-11-03T05:20:43;7.40;99.90
15888;DHT22;56032;51.324;12.376;2022-11-03T05:23:13;7.30;99.90
15888;DHT22;56032;51.324;12.376;2022-11-03T05:25:49;7.30;99.90
15888;DHT22;56032;51.324;12.376;2022-11-03T05:28:23;7.30;99.90
15888;DHT22;56032;51.324;12.376;2022-11-03T05:30:52;7.30;99.90
15888;DHT22;56032;51.324;12.376;2022-11-03T05:33:24;7.20;99.90
15888;DHT22;56032;51.324;12.376;2022-11-03T05:35:53;7.20;99.90
15888;DHT22;56032;51.324;12.376;2022-11-03T05:38:22;7.20;99.90
15888;DHT22;56032;51.324;12.376;2022-11-03T05:40:51;7.20;99.90
15888;DHT22;56032;51.324;12.376;2022-11-03T05:43:21;7.20;99.90
15888;DHT22;56032;51.324;12.376;2022-11-03T05:45:50;7.20;99.90
15888;DHT22;56032;51.324;12.376;2022-11-03T05:48:28;7.20;99.90
15888;DHT22;56032;51.324;12.376;2022-11-03T05:50:58;7.20;99.90
15888;DHT22;56032;51.324;12.376;2022-11-03T05:53:29;7.20;99.90
15888;DHT22;56032;51.324;12.376;2022-11-03T05:55:59;7.10;99.90
15888;DHT22;56032;51.324;12.376;2022-11-03T05:58:30;7.10;99.90
15888;DHT22;56032;51.324;12.376;2022-11-03T06:00:59;7.10;99.90
15888;DHT22;56032;51.324;12.376;2022-11-03T06:03:30;7.10;99.90
15888;DHT22;56032;51.324;12.376;2022-11-03T06:06:09;7.10;99.90
15888;DHT22;56032;51.324;12.376;2022-11-03T06:08:40;7.20;99.90
15888;DHT22;56032;51.324;12.376;2022-11-03T06:11:25;7.20;99.90
15888;DHT22;56032;51.324;12.376;2022-11-03T06:13:55;7.20;99.90
15888;DHT22;56032;51.324;12.376;2022-11-03T06:16:30;7.30;99.90
15888;DHT22;56032;51.324;12.376;2022-11-03T06:19:01;7.20;99.90
15888;DHT22;56032;51.324;12.376;2022-11-03T06:21:34;7.20;99.90
15888;DHT22;56032;51.324;12.376;2022-11-03T06:24:10;7.30;99.90
15888;DHT22;56032;51.324;12.376;2022-11-03T06:26:42;7.30;99.90
15888;DHT22;56032;51.324;12.376;2022-11-03T06:29:12;7.30;99.90
15888;DHT22;56032;51.324;12.376;2022-11-03T06:31:41;7.30;99.90
15888;DHT22;56032;51.324;12.376;2022-11-03T06:34:17;7.30;99.90
15888;DHT22;56032;51.324;12.376;2022-11-03T06:36:48;7.30;99.90
15888;DHT22;56032;51.324;12.376;2022-11-03T06:39:19;7.40;99.90
15888;DHT22;56032;51.324;12.376;2022-11-03T06:41:49;7.40;99.90
15888;DHT22;56032;51.324;12.376;2022-11-03T06:44:19;7.40;99.90
15888;DHT22;56032;51.324;12.376;2022-11-03T06:46:49;7.50;99.90
15888;DHT22;56032;51.324;12.376;2022-11-03T06:49:26;7.50;99.90
15888;DHT22;56032;51.324;12.376;2022-11-03T06:52:01;7.80;99.90
15888;DHT22;56032;51.324;12.376;2022-11-03T06:54:37;7.60;99.90
15888;DHT22;56032;51.324;12.376;2022-11-03T06:57:08;7.60;99.90
15888;DHT22;56032;51.324;12.376;2022-11-03T07:00:05;7.60;99.90
15888;DHT22;56032;51.324;12.376;2022-11-03T07:03:08;7.60;99.90
15888;DHT22;56032;51.324;12.376;2022-11-03T07:05:39;7.70;99.90
15888;DHT22;56032;51.324;12.376;2022-11-03T07:08:16;7.80;99.90
15888;DHT22;56032;51.324;12.376;2022-11-03T07:11:13;7.80;99.90
15888;DHT22;56032;51.324;12.376;2022-11-03T07:13:54;7.90;99.90
15888;DHT22;56032;51.324;12.376;2022-11-03T07:16:35;7.90;99.90
15888;DHT22;56032;51.324;12.376;2022-11-03T07:19:12;8.00;99.90
15888;DHT22;56032;51.324;12.376;2022-11-03T07:21:44;8.00;99.90
15888;DHT22;56032;51.324;12.376;2022-11-03T07:24:14;7.30;99.90
15888;DHT22;56032;51.324;12.376;2022-11-03T07:26:44;8.10;99.90
15888;DHT22;56032;51.324;12.376;2022-11-03T07:29:15;8.20;99.90
15888;DHT22;56032;51.324;12.376;2022-11-03T07:31:45;8.20;99.90
15888;DHT22;56032;51.324;12.376;2022-11-03T07:34:14;8.30;99.90
15888;DHT22;56032;51.324;12.376;2022-11-03T07:36:47;8.40;99.90
15888;DHT22;56032;51.324;12.376;2022-11-03T07:39:21;8.40;99.90
15888;DHT22;56032;51.324;12.376;2022-11-03T07:41:50;8.50;99.90
15888;DHT22;56032;51.324;12.376;2022-11-03T07:44:19;8.50;99.90
15888;DHT22;56032;51.324;12.376;2022-11-03T07:46:48;8.60;99.90
15888;DHT22;56032;51.324;12.376;2022-11-03T07:49:23;8.70;99.90
15888;DHT22;56032;51.324;12.376;2022-11-03T07:51:56;8.80;99.90
15888;DHT22;56032;51.324;12.376;2022-11-03T07:54:27;8.90;99.90
15888;DHT22;56032;51.324;12.376;2022-11-03T07:56:57;9.00;99.90
15888;DHT22;56032;51.324;12.376;2022-11-03T07:59:34;9.10;99.90
15888;DHT22;56032;51.324;12.376;2022-11-03T08:02:10;9.20;99.90
15888;DHT22;56032;51.324;12.376;2022-11-03T08:04:42;9.30;99.90
15888;DHT22;56032;51.324;12.376;2022-11-03T08:07:12;9.40;99.90
15888;DHT22;56032;51.324;12.376;2022-11-03T08:09:40;9.40;99.90
15888;DHT22;56032;51.324;12.376;2022-11-03T08:12:09;9.50;99.90
15888;DHT22;56032;51.324;12.376;2022-11-03T08:14:39;9.60;99.90
15888;DHT22;56032;51.324;12.376;2022-11-03T08:17:10;9.60;99.90
15888;DHT22;56032;51.324;12.376;2022-11-03T08:19:39;9.70;99.90
15888;DHT22;56032;51.324;12.376;2022-11-03T08:22:08;9.70;99.90
15888;DHT22;56032;51.324;12.376;2022-11-03T08:27:42;10.00;99.90
15888;DHT22;56032;51.324;12.376;2022-11-03T08:30:11;10.10;99.90
15888;DHT22;56032;51.324;12.376;2022-11-03T08:32:41;10.20;99.90
15888;DHT22;56032;51.324;12.376;2022-11-03T08:35:15;10.20;99.90
15888;DHT22;56032;51.324;12.376;2022-11-03T08:37:44;10.30;99.90
15888;DHT22;56032;51.324;12.376;2022-11-03T08:40:13;10.40;99.90
15888;DHT22;56032;51.324;12.376;2022-11-03T08:42:44;10.50;99.90
15888;DHT22;56032;51.324;12.376;2022-11-03T08:45:14;10.60;99.90
15888;DHT22;56032;51.324;12.376;2022-11-03T09:22:59;11.30;99.90
15888;DHT22;56032;51.324;12.376;2022-11-03T09:49:48;11.60;99.90
15888;DHT22;56032;51.324;12.376;2022-11-03T09:52:20;11.60;99.90
15888;DHT22;56032;51.324;12.376;2022-11-03T09:58:32;11.70;99.90
15888;DHT22;56032;51.324;12.376;2022-11-03T10:01:01;11.80;99.90
15888;DHT22;56032;51.324;12.376;2022-11-03T10:03:34;11.90;99.90
15888;DHT22;56032;51.324;12.376;2022-11-03T10:06:12;12.10;99.90
15888;DHT22;56032;51.324;12.376;2022-11-03T10:08:43;12.00;99.90
15888;DHT22;56032;51.324;12.376;2022-11-03T10:11:13;12.00;99.90
15888;DHT22;56032;51.324;12.376;2022-11-03T10:13:42;12.10;99.90
15888;DHT22;56032;51.324;12.376;2022-11-03T10:16:15;12.10;99.90
15888;DHT22;56032;51.324;12.376;2022-11-03T10:18:44;12.10;99.90
15888;DHT22;56032;51.324;12.376;2022-11-03T10:21:16;12.20;99.90
15888;DHT22;56032;51.324;12.376;2022-11-03T10:23:45;12.30;99.90
15888;DHT22;56032;51.324;12.376;2022-11-03T10:26:16;12.40;99.90
15888;DHT22;56032;51.324;12.376;2022-11-03T10:28:58;12.40;99.90
15888;DHT22;56032;51.324;12.376;2022-11-03T10:31:31;12.50;99.90
15888;DHT22;56032;51.324;12.376;2022-11-03T10:34:00;12.60;99.90
15888;DHT22;56032;51.324;12.376;2022-11-03T10:36:30;12.70;99.90
15888;DHT22;56032;51.324;12.376;2022-11-03T10:39:21;12.70;99.90
15888;DHT22;56032;51.324;12.376;2022-11-03T10:41:54;12.80;99.90
15888;DHT22;56032;51.324;12.376;2022-11-03T10:44:25;12.90;99.90
15888;DHT22;56032;51.324;12.376;2022-11-03T10:46:57;12.90;99.90
15888;DHT22;56032;51.324;12.376;2022-11-03T10:49:26;13.00;99.90
15888;DHT22;56032;51.324;12.376;2022-11-03T10:52:12;13.00;99.90
15888;DHT22;56032;51.324;12.376;2022-11-03T10:54:51;13.10;99.90
15888;DHT22;56032;51.324;12.376;2022-11-03T10:57:20;13.10;99.90
15888;DHT22;56032;51.324;12.376;2022-11-03T10:59:50;13.20;99.90
15888;DHT22;56032;51.324;12.376;2022-11-03T11:02:21;13.30;99.90
15888;DHT22;56032;51.324;12.376;2022-11-03T11:04:51;13.30;99.90
15888;DHT22;56032;51.324;12.376;2022-11-03T11:07:24;13.40;99.90
15888;DHT22;56032;51.324;12.376;2022-11-03T11:09:54;13.40;99.90
15888;DHT22;56032;51.324;12.376;2022-11-03T11:12:23;13.50;99.90
15888;DHT22;56032;51.324;12.376;2022-11-03T11:14:55;13.50;99.90
15888;DHT22;56032;51.324;12.376;2022-11-03T11:17:41;13.60;99.90
15888;DHT22;56032;51.324;12.376;2022-11-03T11:20:30;13.70;99.90
15888;DHT22;56032;51.324;12.376;2022-11-03T11:26:10;13.80;99.90
15888;DHT22;56032;51.324;12.376;2022-11-03T11:28:40;13.80;99.90
15888;DHT22;56032;51.324;12.376;2022-11-03T11:31:27;13.90;99.90
15888;DHT22;56032;51.324;12.376;2022-11-03T11:39:46;14.20;99.90
15888;DHT22;56032;51.324;12.376;2022-11-03T11:42:17;14.30;99.90
15888;DHT22;56032;51.324;12.376;2022-11-03T11:44:53;14.20;99.90
15888;DHT22;56032;51.324;12.376;2022-11-03T11:47:27;14.30;99.90
15888;DHT22;56032;51.324;12.376;2022-11-03T11:50:02;14.40;99.90
15888;DHT22;56032;51.324;12.376;2022-11-03T11:52:40;14.50;99.90
15888;DHT22;56032;51.324;12.376;2022-11-03T11:55:14;14.70;99.90
15888;DHT22;56032;51.324;12.376;2022-11-03T11:57:45;14.70;99.90
15888;DHT22;56032;51.324;12.376;2022-11-03T12:00:18;14.80;99.90
15888;DHT22;56032;51.324;12.376;2022-11-03T12:02:48;14.80;99.90
15888;DHT22;56032;51.324;12.376;2022-11-03T12:05:17;14.80;99.90
15888;DHT22;56032;51.324;12.376;2022-11-03T12:07:47;14.80;99.90
15888;DHT22;56032;51.324;12.376;2022-11-03T12:10:16;14.80;99.90
15888;DHT22;56032;51.324;12.376;2022-11-03T12:12:47;14.70;99.90
15888;DHT22;56032;51.324;12.376;2022-11-03T12:20:49;14.70;99.90
15888;DHT22;56032;51.324;12.376;2022-11-03T12:23:34;14.70;99.90
15888;DHT22;56032;51.324;12.376;2022-11-03T12:26:04;14.70;99.90
15888;DHT22;56032;51.324;12.376;2022-11-03T12:28:36;14.80;99.90
15888;DHT22;56032;51.324;12.376;2022-11-03T12:31:04;14.80;99.90
15888;DHT22;56032;51.324;12.376;2022-11-03T12:33:33;14.80;99.90
15888;DHT22;56032;51.324;12.376;2022-11-03T12:36:02;14.80;99.90
15888;DHT22;56032;51.324;12.376;2022-11-03T12:38:31;14.90;99.90
15888;DHT22;56032;51.324;12.376;2022-11-03T12:41:02;14.90;99.90
15888;DHT22;56032;51.324;12.376;2022-11-03T12:43:47;14.90;99.90
15888;DHT22;56032;51.324;12.376;2022-11-03T12:46:16;15.00;99.90
15888;DHT22;56032;51.324;12.376;2022-11-03T12:48:46;15.00;99.90
15888;DHT22;56032;51.324;12.376;2022-11-03T12:51:15;14.90;99.90
15888;DHT22;56032;51.324;12.376;2022-11-03T12:53:43;14.90;99.90
15888;DHT22;56032;51.324;12.376;2022-11-03T12:56:12;14.80;99.90
15888;DHT22;56032;51.324;12.376;2022-11-03T12:58:41;14.80;99.90
15888;DHT22;56032;51.324;12.376;2022-11-03T13:01:11;14.80;99.90
15888;DHT22;56032;51.324;12.376;2022-11-03T13:03:40;14.70;99.90
15888;DHT22;56032;51.324;12.376;2022-11-03T13:06:09;14.70;99.90
15888;DHT22;56032;51.324;12.376;2022-11-03T13:08:42;14.70;99.90
15888;DHT22;56032;51.324;12.376;2022-11-03T13:11:16;14.70;99.90
15888;DHT22;56032;51.324;12.376;2022-11-03T13:14:01;14.70;99.90
15888;DHT22;56032;51.324;12.376;2022-11-03T13:16:34;14.70;99.90
15888;DHT22;56032;51.324;12.376;2022-11-03T13:19:03;14.70;99.90
15888;DHT22;56032;51.324;12.376;2022-11-03T13:21:33;14.70;99.90
15888;DHT22;56032;51.324;12.376;2022-11-03T13:24:02;14.70;99.90
15888;DHT22;56032;51.324;12.376;2022-11-03T13:26:30;14.80;99.90
15888;DHT22;56032;51.324;12.376;2022-11-03T13:28:59;14.80;99.90
15888;DHT22;56032;51.324;12.376;2022-11-03T13:31:28;14.80;99.90
15888;DHT22;56032;51.324;12.376;2022-11-03T13:33:59;14.80;99.90
15888;DHT22;56032;51.324;12.376;2022-11-03T13:36:28;14.80;99.90
15888;DHT22;56032;51.324;12.376;2022-11-03T13:38:56;14.80;99.90
15888;DHT22;56032;51.324;12.376;2022-11-03T13:41:25;14.80;99.90
15888;DHT22;56032;51.324;12.376;2022-11-03T13:43:54;14.80;99.90
15888;DHT22;56032;51.324;12.376;2022-11-03T13:46:22;14.70;99.90
15888;DHT22;56032;51.324;12.376;2022-11-03T13:48:51;14.70;99.90
15888;DHT22;56032;51.324;12.376;2022-11-03T13:51:41;14.70;99.90
15888;DHT22;56032;51.324;12.376;2022-11-03T13:54:09;14.70;99.90
15888;DHT22;56032;51.324;12.376;2022-11-03T13:56:58;14.60;99.90
15888;DHT22;56032;51.324;12.376;2022-11-03T13:59:46;14.70;99.90
15888;DHT22;56032;51.324;12.376;2022-11-03T14:02:15;14.60;99.90
15888;DHT22;56032;51.324;12.376;2022-11-03T14:05:04;14.60;99.90
15888;DHT22;56032;51.324;12.376;2022-11-03T14:07:38;14.60;99.90
15888;DHT22;56032;51.324;12.376;2022-11-03T14:10:07;14.40;99.90
15888;DHT22;56032;51.324;12.376;2022-11-03T14:12:36;14.60;99.90
15888;DHT22;56032;51.324;12.376;2022-11-03T14:15:05;14.50;99.90
15888;DHT22;56032;51.324;12.376;2022-11-03T14:17:34;14.50;99.90
15888;DHT22;56032;51.324;12.376;2022-11-03T14:20:03;14.50;99.90
15888;DHT22;56032;51.324;12.376;2022-11-03T14:22:32;14.50;99.90
15888;DHT22;56032;51.324;12.376;2022-11-03T14:25:02;14.50;99.90
15888;DHT22;56032;51.324;12.376;2022-11-03T14:27:31;14.50;99.90
15888;DHT22;56032;51.324;12.376;2022-11-03T14:30:00;14.40;99.90
15888;DHT22;56032;51.324;12.376;2022-11-03T14:32:28;14.40;99.90
15888;DHT22;56032;51.324;12.376;2022-11-03T14:34:56;14.40;99.90
15888;DHT22;56032;51.324;12.376;2022-11-03T14:37:25;14.40;99.90
15888;DHT22;56032;51.324;12.376;2022-11-03T14:39:55;14.30;99.90
15888;DHT22;56032;51.324;12.376;2022-11-03T14:42:24;14.30;99.90
15888;DHT22;56032;51.324;12.376;2022-11-03T14:44:51;14.30;99.90
15888;DHT22;56032;51.324;12.376;2022-11-03T14:47:20;14.30;99.90
15888;DHT22;56032;51.324;12.376;2022-11-03T14:49:49;14.20;99.90
15888;DHT22;56032;51.324;12.376;2022-11-03T14:52:17;14.20;99.90
15888;DHT22;56032;51.324;12.376;2022-11-03T14:54:46;14.10;99.90
15888;DHT22;56032;51.324;12.376;2022-11-03T14:57:15;14.10;99.90
15888;DHT22;56032;51.324;12.376;2022-11-03T14:59:45;14.00;99.90
15888;DHT22;56032;51.324;12.376;2022-11-03T15:02:19;14.00;99.90
15888;DHT22;56032;51.324;12.376;2022-11-03T15:04:47;14.00;99.90
15888;DHT22;56032;51.324;12.376;2022-11-03T15:07:16;14.00;99.90
15888;DHT22;56032;51.324;12.376;2022-11-03T15:09:45;14.00;99.90
15888;DHT22;56032;51.324;12.376;2022-11-03T15:12:13;14.00;99.90
15888;DHT22;56032;51.324;12.376;2022-11-03T15:14:42;13.90;99.90
15888;DHT22;56032;51.324;12.376;2022-11-03T15:17:13;13.90;99.90
15888;DHT22;56032;51.324;12.376;2022-11-03T15:19:42;13.80;99.90
15888;DHT22;56032;51.324;12.376;2022-11-03T15:22:10;13.80;99.90
15888;DHT22;56032;51.324;12.376;2022-11-03T15:24:38;13.80;99.90
15888;DHT22;56032;51.324;12.376;2022-11-03T15:27:28;13.70;99.90
15888;DHT22;56032;51.324;12.376;2022-11-03T15:29:57;13.60;99.90
15888;DHT22;56032;51.324;12.376;2022-11-03T15:32:29;13.60;99.90
15888;DHT22;56032;51.324;12.376;2022-11-03T15:35:02;13.50;99.90
15888;DHT22;56032;51.324;12.376;2022-11-03T15:37:31;13.40;99.90
15888;DHT22;56032;51.324;12.376;2022-11-03T15:40:00;13.40;99.90
15888;DHT22;56032;51.324;12.376;2022-11-03T15:42:28;13.40;99.90
15888;DHT22;56032;51.324;12.376;2022-11-03T15:44:57;13.40;99.90
15888;DHT22;56032;51.324;12.376;2022-11-03T15:47:25;13.30;99.90
15888;DHT22;56032;51.324;12.376;2022-11-03T15:49:55;13.30;99.90
15888;DHT22;56032;51.324;12.376;2022-11-03T15:52:23;13.30;99.90
15888;DHT22;56032;51.324;12.376;2022-11-03T15:54:52;13.30;99.90
15888;DHT22;56032;51.324;12.376;2022-11-03T15:57:20;13.30;99.90
15888;DHT22;56032;51.324;12.376;2022-11-03T15:59:49;13.20;99.90
15888;DHT22;56032;51.324;12.376;2022-11-03T16:02:23;13.20;99.90
15888;DHT22;56032;51.324;12.376;2022-11-03T16:05:09;13.10;99.90
15888;DHT22;56032;51.324;12.376;2022-11-03T16:07:38;13.10;99.90
15888;DHT22;56032;51.324;12.376;2022-11-03T16:10:07;13.10;99.90
15888;DHT22;56032;51.324;12.376;2022-11-03T16:12:36;13.00;99.90
15888;DHT22;56032;51.324;12.376;2022-11-03T16:15:05;13.00;99.90
15888;DHT22;56032;51.324;12.376;2022-11-03T16:17:34;13.00;99.90
15888;DHT22;56032;51.324;12.376;2022-11-03T16:20:11;13.00;99.90
15888;DHT22;56032;51.324;12.376;2022-11-03T16:22:41;13.00;99.90
15888;DHT22;56032;51.324;12.376;2022-11-03T16:28:04;12.90;99.90
15888;DHT22;56032;51.324;12.376;2022-11-03T16:30:38;12.90;99.90
15888;DHT22;56032;51.324;12.376;2022-11-03T16:33:07;12.90;99.90
15888;DHT22;56032;51.324;12.376;2022-11-03T16:35:37;12.90;99.90
15888;DHT22;56032;51.324;12.376;2022-11-03T16:38:06;12.80;99.90
15888;DHT22;56032;51.324;12.376;2022-11-03T16:40:36;12.80;99.90
15888;DHT22;56032;51.324;12.376;2022-11-03T16:43:07;12.80;99.90
15888;DHT22;56032;51.324;12.376;2022-11-03T16:45:37;12.70;99.90
15888;DHT22;56032;51.324;12.376;2022-11-03T16:48:06;12.70;99.90
15888;DHT22;56032;51.324;12.376;2022-11-03T16:50:36;12.60;99.90
15888;DHT22;56032;51.324;12.376;2022-11-03T16:53:11;12.60;99.90
15888;DHT22;56032;51.324;12.376;2022-11-03T16:55:40;12.50;99.90
15888;DHT22;56032;51.324;12.376;2022-11-03T16:58:08;12.50;99.90
15888;DHT22;56032;51.324;12.376;2022-11-03T17:00:37;12.40;99.90
15888;DHT22;56032;51.324;12.376;2022-11-03T17:03:06;12.40;99.90
15888;DHT22;56032;51.324;12.376;2022-11-03T17:05:36;12.30;99.90
15888;DHT22;56032;51.324;12.376;2022-11-03T17:08:07;12.20;99.90
15888;DHT22;56032;51.324;12.376;2022-11-03T17:10:57;12.20;99.90
15888;DHT22;56032;51.324;12.376;2022-11-03T17:13:26;12.20;99.90
15888;DHT22;56032;51.324;12.376;2022-11-03T17:15:55;12.20;99.90
15888;DHT22;56032;51.324;12.376;2022-11-03T17:18:23;12.10;99.90